Time;durP1;ratioP1;P1;durP2;ratioP2;P2;SDS_P1;SDS_P2;PMS_P1;PMS_P2;Temp;Humidity;BMP_temperature;BMP_pressure;BME280_temperature;BME280_humidity;BME280_pressure;Samples;Min_cycle;Max_cycle;Signal;HPM_P1;HPM_P2
2023/06/05 00:00:19;;;;;;;;;;;;;;;16.53;74.27;99572.31;4291217;33;34091;-91
2023/06/05 00:02:50;;;;;;;;;;;;;;;16.67;71.27;99570.97;4278725;33;35693;-91
2023/06/05 00:05:18;;;;;;;;;;;;;;;16.52;74.23;99570.59;4278056;33;35391;-91
2023/06/05 00:07:46;;;;;;;;;;;;;;;16.65;70.46;99566.69;4290754;33;33742;-91
2023/06/05 00:10:14;;;;;;;;;;;;;;;17.01;67.69;99569.91;4277897;33;33884;-90
2023/06/05 00:12:41;;;;;;;;;;;;;;;17.00;66.97;99569.97;4290883;33;35253;-91
2023/06/05 00:15:09;;;;;;;;;;;;;;;17.00;67.39;99570.81;4278090;33;35042;-91
2023/06/05 00:17:37;;;;;;;;;;;;;;;17.12;67.16;99574.81;4291086;33;33015;-90
2023/06/05 00:20:06;;;;;;;;;;;;;;;17.14;70.86;99570.34;4277005;33;34258;-91
2023/06/05 00:22:38;;;;;;;;;;;;;;;16.97;71.07;99564.78;4278612;33;35196;-91
2023/06/05 00:25:06;;;;;;;;;;;;;;;16.97;72.42;99575.31;4277978;33;35437;-91
2023/06/05 00:27:34;;;;;;;;;;;;;;;16.97;72.78;99568.28;4290901;33;33136;-90
2023/06/05 00:30:03;;;;;;;;;;;;;;;17.25;69.95;99562.09;4290736;33;33973;-91
2023/06/05 00:32:30;;;;;;;;;;;;;;;17.16;70.79;99573.78;4290655;33;36002;-94
2023/06/05 00:34:58;;;;;;;;;;;;;;;16.98;72.94;99566.53;4290540;33;35177;-90
2023/06/05 00:37:26;;;;;;;;;;;;;;;17.06;71.42;99569.75;4290726;33;33388;-91
2023/06/05 00:39:55;;;;;;;;;;;;;;;16.93;70.03;99571.94;4290837;33;34597;-92
2023/06/05 00:42:22;;;;;;;;;;;;;;;17.09;69.92;99566.16;4277775;33;36083;-90
2023/06/05 00:44:50;;;;;;;;;;;;;;;17.37;66.50;99566.06;4277771;33;35065;-91
2023/06/05 00:47:18;;;;;;;;;;;;;;;17.75;63.65;99571.72;4277507;33;32102;-91
2023/06/05 00:49:46;;;;;;;;;;;;;;;17.61;63.70;99570.47;4290417;33;34885;-91
2023/06/05 00:52:14;;;;;;;;;;;;;;;17.64;65.43;99566.84;4277696;33;35191;-91
2023/06/05 00:54:42;;;;;;;;;;;;;;;17.58;66.98;99575.00;4277729;33;34738;-91
2023/06/05 00:57:10;;;;;;;;;;;;;;;17.78;63.01;99572.47;4290488;33;33267;-91
2023/06/05 00:59:40;;;;;;;;;;;;;;;18.03;59.63;99570.75;4277795;33;34887;-91
2023/06/05 01:02:08;;;;;;;;;;;;;;;18.09;61.08;99574.00;4290513;33;35178;-91
2023/06/05 01:04:36;;;;;;;;;;;;;;;18.17;58.88;99568.44;4290513;33;34830;-91
2023/06/05 01:07:05;;;;;;;;;;;;;;;17.78;63.63;99566.34;4277808;33;33381;-90
2023/06/05 01:09:32;;;;;;;;;;;;;;;17.51;64.03;99569.06;4277720;33;35088;-94
2023/06/05 01:12:01;;;;;;;;;;;;;;;17.67;63.81;99568.53;4290612;33;36060;-96
2023/06/05 01:14:33;;;;;;;;;;;;;;;17.62;65.27;99566.06;4277491;33;34529;-91
2023/06/05 01:17:02;;;;;;;;;;;;;;;17.42;66.78;99569.41;4277531;33;33105;-91
2023/06/05 01:19:31;;;;;;;;;;;;;;;17.38;65.50;99562.50;4277651;33;35023;-91
2023/06/05 01:21:59;;;;;;;;;;;;;;;17.31;65.03;99561.00;4277240;33;34118;-90
2023/06/05 01:24:27;;;;;;;;;;;;;;;17.70;63.23;99563.12;4277431;33;35316;-91
2023/06/05 01:27:03;;;;;;;;;;;;;;;17.78;61.13;99559.31;4277634;33;34046;-91
2023/06/05 01:29:33;;;;;;;;;;;;;;;17.98;62.53;99566.53;4290692;33;34214;-91
2023/06/05 01:32:03;;;;;;;;;;;;;;;18.13;59.17;99566.84;4259315;33;35124;-91
2023/06/05 01:34:30;;;;;;;;;;;;;;;17.20;69.02;99558.75;4277407;33;34701;-91
2023/06/05 01:36:58;;;;;;;;;;;;;;;17.62;62.82;99566.91;4290589;33;34170;-91
2023/06/05 01:39:26;;;;;;;;;;;;;;;17.34;65.96;99563.53;4277111;33;33135;-90
2023/06/05 01:41:55;;;;;;;;;;;;;;;17.52;63.12;99564.66;4290600;33;34865;-91
2023/06/05 01:44:24;;;;;;;;;;;;;;;17.07;67.79;99566.22;4290444;33;34461;-91
2023/06/05 01:46:52;;;;;;;;;;;;;;;17.02;69.97;99570.75;4290319;33;33132;-91
2023/06/05 01:49:21;;;;;;;;;;;;;;;17.20;67.91;99575.38;4277081;33;32930;-90
2023/06/05 01:51:49;;;;;;;;;;;;;;;16.66;72.45;99565.78;4277393;33;34863;-91
2023/06/05 01:54:18;;;;;;;;;;;;;;;16.69;72.20;99560.41;4277521;33;34460;-93
2023/06/05 01:56:47;;;;;;;;;;;;;;;16.65;70.66;99558.78;4290065;33;33098;-90
2023/06/05 01:59:16;;;;;;;;;;;;;;;16.46;72.99;99566.37;4290102;33;34491;-90
2023/06/05 02:01:44;;;;;;;;;;;;;;;16.94;69.99;99562.25;4265516;33;35078;-91
2023/06/05 02:04:18;;;;;;;;;;;;;;;17.07;68.38;99562.72;4277260;33;34267;-91
2023/06/05 02:06:46;;;;;;;;;;;;;;;16.92;70.43;99559.69;4290212;33;33000;-93
2023/06/05 02:09:15;;;;;;;;;;;;;;;16.87;70.42;99561.59;4290054;33;34611;-91
2023/06/05 02:11:45;;;;;;;;;;;;;;;16.95;70.05;99564.00;4289896;33;35693;-91
2023/06/05 02:14:13;;;;;;;;;;;;;;;16.80;68.57;99565.31;4265619;33;35355;-91
2023/06/05 02:16:43;;;;;;;;;;;;;;;16.78;71.36;99568.00;4290062;33;33741;-90
2023/06/05 02:19:12;;;;;;;;;;;;;;;16.66;74.06;99569.25;4265493;33;34295;-90
2023/06/05 02:21:39;;;;;;;;;;;;;;;16.81;69.37;99565.25;4277009;33;35369;-90
2023/06/05 02:24:07;;;;;;;;;;;;;;;17.01;70.69;99569.03;4290048;33;35483;-91
2023/06/05 02:26:35;;;;;;;;;;;;;;;16.93;72.68;99566.66;4290026;33;32985;-90
2023/06/05 02:29:03;;;;;;;;;;;;;;;17.40;69.00;99560.69;4289936;33;33902;-91
2023/06/05 02:31:31;;;;;;;;;;;;;;;16.83;69.67;99555.56;4289704;33;35266;-91
2023/06/05 02:33:59;;;;;;;;;;;;;;;17.19;70.64;99563.16;4276968;33;35110;-93
2023/06/05 02:36:32;;;;;;;;;;;;;;;16.72;72.89;99557.69;4277024;33;33468;-90
2023/06/05 02:39:04;;;;;;;;;;;;;;;17.04;67.81;99559.25;4289803;33;34932;-96
2023/06/05 02:41:32;;;;;;;;;;;;;;;16.46;75.09;99561.13;4289769;33;36089;-90
2023/06/05 02:44:03;;;;;;;;;;;;;;;16.45;75.20;99560.28;4290849;33;34451;-90
2023/06/05 02:46:31;;;;;;;;;;;;;;;16.37;74.14;99559.66;4278236;33;32947;-90
2023/06/05 02:48:59;;;;;;;;;;;;;;;16.30;74.28;99555.50;4291701;33;33767;-92
2023/06/05 02:51:28;;;;;;;;;;;;;;;16.35;74.46;99556.22;4291606;33;35729;-90
2023/06/05 02:53:57;;;;;;;;;;;;;;;16.97;73.40;99557.75;4266726;33;34763;-90
2023/06/05 02:56:26;;;;;;;;;;;;;;;16.34;74.15;99565.03;4278172;33;31835;-89
2023/06/05 02:58:56;;;;;;;;;;;;;;;16.46;72.54;99556.72;4278397;33;32712;-90
2023/06/05 03:01:25;;;;;;;;;;;;;;;16.52;72.85;99549.56;4278774;33;35100;-89
2023/06/05 03:03:53;;;;;;;;;;;;;;;16.44;74.42;99550.66;4278712;33;34713;-90
2023/06/05 03:06:27;;;;;;;;;;;;;;;16.39;77.79;99547.31;4291359;33;33279;-90
2023/06/05 03:08:55;;;;;;;;;;;;;;;16.20;79.79;99554.03;4279308;33;33835;-90
2023/06/05 03:11:25;;;;;;;;;;;;;;;16.33;77.34;99539.62;4278247;33;35746;-90
2023/06/05 03:13:53;;;;;;;;;;;;;;;16.67;76.84;99541.19;4278237;33;34701;-90
2023/06/05 03:16:23;;;;;;;;;;;;;;;16.61;76.64;99546.66;4291535;33;34171;-91
2023/06/05 03:18:52;;;;;;;;;;;;;;;16.42;76.85;99549.84;4266992;33;34118;-91
2023/06/05 03:21:20;;;;;;;;;;;;;;;16.61;75.97;99538.78;4291442;33;35134;-91
2023/06/05 03:23:48;;;;;;;;;;;;;;;16.36;77.28;99542.19;4278627;33;34337;-91
2023/06/05 03:26:16;;;;;;;;;;;;;;;16.74;75.15;99545.34;4291098;33;33163;-92
2023/06/05 03:28:44;;;;;;;;;;;;;;;16.13;79.12;99545.53;4278199;33;34079;-92
2023/06/05 03:31:12;;;;;;;;;;;;;;;16.06;81.49;99542.22;4277791;33;34517;-94
2023/06/05 03:33:40;;;;;;;;;;;;;;;16.31;80.03;99544.09;4291208;33;35495;-90
2023/06/05 03:36:08;;;;;;;;;;;;;;;16.30;78.44;99543.22;4266344;33;32447;-90
2023/06/05 03:38:36;;;;;;;;;;;;;;;16.56;78.38;99551.19;4278456;33;34216;-91
2023/06/05 03:41:04;;;;;;;;;;;;;;;16.54;78.52;99547.78;4291127;33;34940;-95
2023/06/05 03:43:32;;;;;;;;;;;;;;;16.50;78.41;99557.53;4291124;33;34812;-90
2023/06/05 03:46:01;;;;;;;;;;;;;;;16.59;78.44;99556.34;4266840;33;34118;-90
2023/06/05 03:48:29;;;;;;;;;;;;;;;16.81;75.74;99557.38;4291059;33;34965;-90
2023/06/05 03:50:57;;;;;;;;;;;;;;;16.98;76.48;99558.63;4291231;33;36155;-89
2023/06/05 03:53:29;;;;;;;;;;;;;;;17.03;74.14;99564.59;4290942;33;34615;-89
2023/06/05 03:55:59;;;;;;;;;;;;;;;17.31;69.28;99566.28;4290787;33;33296;-90
2023/06/05 03:58:29;;;;;;;;;;;;;;;17.46;68.32;99565.75;4291337;33;34294;-90
2023/06/05 04:00:57;;;;;;;;;;;;;;;17.58;69.25;99564.44;4277780;33;35116;-90
2023/06/05 04:03:27;;;;;;;;;;;;;;;17.65;66.80;99565.94;4290989;33;35436;-90
2023/06/05 04:05:55;;;;;;;;;;;;;;;17.76;65.27;99568.19;4290931;33;33777;-90
2023/06/05 04:08:22;;;;;;;;;;;;;;;18.12;66.48;99565.13;4290944;33;34984;-90
2023/06/05 04:10:52;;;;;;;;;;;;;;;17.96;64.98;99565.69;4266310;33;35215;-93
2023/06/05 04:13:21;;;;;;;;;;;;;;;18.04;66.22;99565.41;4277915;33;34761;-91
2023/06/05 04:15:49;;;;;;;;;;;;;;;18.16;70.31;99567.59;4278219;33;33109;-90
2023/06/05 04:18:17;;;;;;;;;;;;;;;18.25;73.80;99563.75;4277922;33;32936;-91
2023/06/05 04:20:46;;;;;;;;;;;;;;;18.08;78.59;99569.66;4290689;33;35196;-93
2023/06/05 04:23:14;;;;;;;;;;;;;;;18.04;81.71;99568.06;4291155;33;35390;-90
2023/06/05 04:25:45;;;;;;;;;;;;;;;18.06;83.95;99570.62;4291155;33;34041;-91
2023/06/05 04:28:15;;;;;;;;;;;;;;;18.19;83.89;99567.47;4278273;33;34100;-91
2023/06/05 04:30:45;;;;;;;;;;;;;;;17.96;87.86;99565.69;4290964;33;34921;-91
2023/06/05 04:33:14;;;;;;;;;;;;;;;17.91;89.50;99570.31;4290974;33;34689;-94
2023/06/05 04:35:42;;;;;;;;;;;;;;;18.17;87.41;99569.28;4278111;33;33830;-91
2023/06/05 04:38:10;;;;;;;;;;;;;;;18.32;85.34;99567.84;4277825;33;34077;-92
2023/06/05 04:40:42;;;;;;;;;;;;;;;18.18;85.39;99576.28;4277416;33;36087;-88
2023/06/05 04:43:12;;;;;;;;;;;;;;;18.27;85.33;99568.97;4254360;33;33390;-95
2023/06/05 04:45:41;;;;;;;;;;;;;;;18.14;86.29;99568.53;4290002;33;34156;-94
2023/06/05 04:48:10;;;;;;;;;;;;;;;18.29;84.10;99572.38;4276858;33;32985;-88
2023/06/05 04:50:38;;;;;;;;;;;;;;;18.09;82.53;99571.38;4276829;33;34955;-95
2023/06/05 04:53:07;;;;;;;;;;;;;;;18.29;80.11;99572.38;4289601;33;33560;-96
2023/06/05 04:55:36;;;;;;;;;;;;;;;18.28;79.97;99571.53;4289720;33;33328;-95
2023/06/05 04:58:04;;;;;;;;;;;;;;;18.33;79.96;99569.56;4275512;33;33613;-95
2023/06/05 05:00:32;;;;;;;;;;;;;;;18.44;76.08;99566.53;4273943;33;34931;-91
2023/06/05 05:03:02;;;;;;;;;;;;;;;18.58;69.61;99568.59;4250342;33;34318;-90
2023/06/05 05:05:31;;;;;;;;;;;;;;;18.72;67.08;99574.19;4261252;33;33169;-95
2023/06/05 05:07:59;;;;;;;;;;;;;;;18.71;68.84;99564.53;4261303;33;34058;-95
2023/06/05 05:10:27;;;;;;;;;;;;;;;18.72;66.73;99571.56;4275474;33;36290;-96
2023/06/05 05:13:01;;;;;;;;;;;;;;;18.98;65.52;99568.78;4262641;33;34464;-96
2023/06/05 05:15:29;;;;;;;;;;;;;;;19.13;69.43;99570.78;4262072;33;32198;-94
2023/06/05 05:18:00;;;;;;;;;;;;;;;19.01;70.58;99566.87;4267972;33;32992;-88
2023/06/05 05:20:29;;;;;;;;;;;;;;;19.08;68.71;99564.84;4262568;33;35317;-95
2023/06/05 05:22:59;;;;;;;;;;;;;;;19.05;70.34;99565.81;4249828;33;34493;-90
2023/06/05 05:25:28;;;;;;;;;;;;;;;19.28;69.46;99569.28;4262186;33;33190;-95
2023/06/05 05:27:56;;;;;;;;;;;;;;;19.29;69.47;99563.06;4260752;33;34264;-96
2023/06/05 05:30:24;;;;;;;;;;;;;;;19.34;68.84;99569.00;4262586;33;35145;-95
2023/06/05 05:32:52;;;;;;;;;;;;;;;19.40;69.61;99574.03;4274991;33;34539;-95
2023/06/05 05:35:20;;;;;;;;;;;;;;;19.35;69.81;99570.72;4275284;33;34121;-91
2023/06/05 05:37:48;;;;;;;;;;;;;;;19.44;71.93;99572.94;4275539;33;34225;-94
2023/06/05 05:40:16;;;;;;;;;;;;;;;19.57;70.66;99575.06;4273327;33;35129;-93
2023/06/05 05:42:44;;;;;;;;;;;;;;;19.50;66.71;99567.41;4261848;33;35127;-94
2023/06/05 05:45:12;;;;;;;;;;;;;;;19.40;65.38;99574.03;4261820;33;33909;-95
2023/06/05 05:47:40;;;;;;;;;;;;;;;19.37;63.46;99571.50;4274876;33;34181;-96
2023/06/05 05:50:08;;;;;;;;;;;;;;;19.63;63.40;99570.38;4250368;33;35413;-95
2023/06/05 05:52:36;;;;;;;;;;;;;;;19.39;65.84;99567.00;4273416;33;34744;-94
2023/06/05 05:55:04;;;;;;;;;;;;;;;19.55;64.87;99566.34;4275049;33;34033;-95
2023/06/05 05:57:32;;;;;;;;;;;;;;;19.46;63.18;99557.91;4273066;33;33341;-89
2023/06/05 06:00:00;;;;;;;;;;;;;;;19.77;63.55;99561.88;4276347;33;35300;-90
2023/06/05 06:02:40;;;;;;;;;;;;;;;19.46;65.23;99557.03;4287399;33;34879;-96
2023/06/05 06:05:09;;;;;;;;;;;;;;;19.27;66.01;99563.12;4289104;33;33270;-94
2023/06/05 06:07:36;;;;;;;;;;;;;;;19.76;64.87;99560.13;4264682;33;35087;-95
2023/06/05 06:10:04;;;;;;;;;;;;;;;19.50;62.53;99559.50;4273621;33;35153;-93
2023/06/05 06:12:32;;;;;;;;;;;;;;;19.74;63.14;99562.00;4289084;33;34725;-88
2023/06/05 06:15:01;;;;;;;;;;;;;;;19.63;61.86;99558.94;4264254;33;33397;-89
2023/06/05 06:17:29;;;;;;;;;;;;;;;19.84;62.87;99558.00;4263589;33;34542;-94
2023/06/05 06:19:57;;;;;;;;;;;;;;;19.88;61.84;99553.44;4262551;33;34439;-95
2023/06/05 06:22:26;;;;;;;;;;;;;;;20.13;60.19;99563.72;4275950;33;32751;-90
2023/06/05 06:24:54;;;;;;;;;;;;;;;20.36;58.43;99560.00;4276123;33;33210;-89
2023/06/05 06:27:23;;;;;;;;;;;;;;;20.26;60.50;99556.09;4275376;33;35231;-89
2023/06/05 06:29:55;;;;;;;;;;;;;;;20.11;59.64;99555.03;4288706;33;34495;-90
2023/06/05 06:32:25;;;;;;;;;;;;;;;20.40;61.76;99560.72;4288651;33;32243;-96
2023/06/05 06:34:54;;;;;;;;;;;;;;;20.39;57.69;99561.66;4276030;33;32997;-90
2023/06/05 06:37:22;;;;;;;;;;;;;;;20.70;56.58;99558.44;4264285;33;33895;-92
2023/06/05 06:39:50;;;;;;;;;;;;;;;20.20;61.53;99565.16;4275199;33;35326;-89
2023/06/05 06:42:18;;;;;;;;;;;;;;;20.33;60.92;99565.47;4275329;33;34782;-90
2023/06/05 06:44:55;;;;;;;;;;;;;;;20.98;54.33;99573.81;4252974;33;33314;-89
2023/06/05 06:47:37;;;;;;;;;;;;;;;20.53;57.65;99567.16;4265364;33;33784;-90
2023/06/05 06:50:05;;;;;;;;;;;;;;;20.34;57.37;99568.97;4279126;33;35678;-91
2023/06/05 06:52:33;;;;;;;;;;;;;;;20.66;56.11;99574.53;4269117;33;34842;-93
2023/06/05 06:55:02;;;;;;;;;;;;;;;20.46;57.72;99566.56;4274310;33;33296;-95
2023/06/05 06:57:33;;;;;;;;;;;;;;;20.82;56.37;99568.41;4308487;27;34500;-94
2023/06/05 07:00:09;;;;;;;;;;;;;;;20.40;58.91;99563.38;4293654;28;33902;-92
2023/06/05 07:02:44;;;;;;;;;;;;;;;20.70;59.50;99565.50;4299465;33;34503;-93
2023/06/05 07:05:38;;;;;;;;;;;;;;;20.65;56.25;99565.72;4313829;33;33736;-92
2023/06/05 07:08:21;;;;;;;;;;;;;;;20.76;58.53;99565.22;4314440;33;34120;-93
2023/06/05 07:11:01;;;;;;;;;;;;;;;20.74;59.27;99567.06;4315898;33;36531;-93
2023/06/05 07:13:54;;;;;;;;;;;;;;;20.96;58.71;99572.16;4316370;33;34725;-92
2023/06/05 07:16:28;;;;;;;;;;;;;;;20.74;59.79;99575.00;4312599;33;33144;-93
2023/06/05 07:18:57;;;;;;;;;;;;;;;20.72;57.38;99567.16;4308507;33;35003;-94
2023/06/05 07:21:28;;;;;;;;;;;;;;;20.91;59.91;99567.09;4296495;33;34430;-93
2023/06/05 07:23:57;;;;;;;;;;;;;;;21.15;57.23;99577.38;4313098;33;33915;-92
2023/06/05 07:26:27;;;;;;;;;;;;;;;20.99;58.22;99572.00;4297973;33;33829;-95
2023/06/05 07:29:20;;;;;;;;;;;;;;;20.99;59.81;99582.59;4307491;33;34209;-92
2023/06/05 07:31:48;;;;;;;;;;;;;;;21.00;59.98;99587.81;4290433;33;35586;-92
2023/06/05 07:34:20;;;;;;;;;;;;;;;21.07;59.10;99582.19;4325655;33;34832;-94
2023/06/05 07:36:51;;;;;;;;;;;;;;;21.06;59.25;99588.44;4310713;33;33580;-93
2023/06/05 07:39:20;;;;;;;;;;;;;;;21.09;58.48;99583.84;4306651;33;34265;-94
2023/06/05 07:41:47;;;;;;;;;;;;;;;21.14;57.28;99591.53;4296878;33;35181;-96
2023/06/05 07:44:23;;;;;;;;;;;;;;;21.53;55.63;99590.47;4307955;33;34734;-92
2023/06/05 07:46:51;;;;;;;;;;;;;;;21.22;56.67;99592.03;4307539;33;33506;-92
2023/06/05 07:49:23;;;;;;;;;;;;;;;21.19;58.51;99581.59;4297712;33;34144;-93
2023/06/05 07:51:57;;;;;;;;;;;;;;;21.34;56.77;99591.41;4297082;33;35078;-93
2023/06/05 07:54:28;;;;;;;;;;;;;;;21.29;59.75;99590.78;4308208;33;34053;-93
2023/06/05 07:56:57;;;;;;;;;;;;;;;21.34;61.33;99591.41;4273724;33;863937;-92
2023/06/05 07:59:27;;;;;;;;;;;;;;;21.90;55.77;99594.72;4305457;33;34152;-96
2023/06/05 08:01:56;;;;;;;;;;;;;;;21.86;55.33;99593.12;4291746;33;35278;-95
2023/06/05 08:04:25;;;;;;;;;;;;;;;21.78;56.60;99588.25;4303360;33;34719;-92
2023/06/05 08:06:53;;;;;;;;;;;;;;;21.82;56.35;99590.75;4302269;33;33811;-95
2023/06/05 08:09:22;;;;;;;;;;;;;;;21.43;56.38;99586.56;4303178;33;34665;-94
2023/06/05 08:11:50;;;;;;;;;;;;;;;22.02;54.36;99587.03;4304326;33;34910;-93
2023/06/05 08:14:18;;;;;;;;;;;;;;;21.79;57.40;99589.09;4300580;33;34732;-94
2023/06/05 08:16:46;;;;;;;;;;;;;;;22.42;53.94;99591.03;4277787;33;32067;-96
2023/06/05 08:19:14;;;;;;;;;;;;;;;22.23;53.63;99595.59;4301344;33;33682;-93
2023/06/05 08:21:41;;;;;;;;;;;;;;;22.28;54.29;99588.28;4304794;33;36078;-95
2023/06/05 08:24:14;;;;;;;;;;;;;;;21.88;54.19;99590.41;4289400;33;35412;-92
2023/06/05 08:26:43;;;;;;;;;;;;;;;22.05;54.70;99592.16;4304508;33;33220;-96
2023/06/05 08:29:12;;;;;;;;;;;;;;;22.22;55.01;99593.88;4302757;33;34656;-96
2023/06/05 08:31:40;;;;;;;;;;;;;;;22.08;54.60;99592.84;4294503;33;35202;-95
2023/06/05 08:34:09;;;;;;;;;;;;;;;22.13;54.40;99590.81;4293704;33;34546;-92
2023/06/05 08:36:58;;;;;;;;;;;;;;;21.98;57.14;99590.78;4309328;33;33673;-93
2023/06/05 08:39:31;;;;;;;;;;;;;;;21.86;54.38;99597.59;4304571;33;34155;-92
2023/06/05 08:42:02;;;;;;;;;;;;;;;22.14;55.42;99591.66;4306211;33;33350;-95
2023/06/05 08:44:32;;;;;;;;;;;;;;;21.81;57.74;99595.19;4305528;33;34743;-93
2023/06/05 08:47:01;;;;;;;;;;;;;;;21.68;57.52;99589.69;4309740;33;33473;-96
2023/06/05 08:49:36;;;;;;;;;;;;;;;21.70;57.75;99598.41;4294322;33;34529;-94
2023/06/05 08:52:08;;;;;;;;;;;;;;;22.02;55.46;99598.47;4296649;33;35248;-92
2023/06/05 08:54:38;;;;;;;;;;;;;;;21.81;57.08;99599.63;4305123;33;34941;-94
2023/06/05 08:57:12;;;;;;;;;;;;;;;21.86;59.35;99597.59;4308537;33;33091;-93
2023/06/05 08:59:41;;;;;;;;;;;;;;;21.93;56.00;99594.53;4293714;33;33875;-92
2023/06/05 09:02:11;;;;;;;;;;;;;;;22.29;54.93;99585.56;4291994;33;35523;-92
2023/06/05 09:04:39;;;;;;;;;;;;;;;22.69;53.83;99588.59;4307293;33;34392;-94
2023/06/05 09:07:11;;;;;;;;;;;;;;;22.22;55.38;99583.28;4293839;33;32929;-94
2023/06/05 09:09:38;;;;;;;;;;;;;;;22.70;55.25;99586.81;4292770;33;33934;-93
2023/06/05 09:12:07;;;;;;;;;;;;;;;22.64;53.54;99589.81;4304787;33;34950;-93
2023/06/05 09:14:35;;;;;;;;;;;;;;;23.09;51.62;99586.34;4293617;33;34658;-95
2023/06/05 09:17:06;;;;;;;;;;;;;;;22.68;56.17;99581.59;4307584;33;33205;-92
2023/06/05 09:19:43;;;;;;;;;;;;;;;23.20;52.95;99580.38;4292416;33;34246;-93
2023/06/05 09:22:14;;;;;;;;;;;;;;;23.22;51.55;99572.34;4307389;33;35183;-93
2023/06/05 09:24:43;;;;;;;;;;;;;;;23.80;52.17;99578.59;4310375;33;34569;-92
2023/06/05 09:27:12;;;;;;;;;;;;;;;23.66;54.98;99585.62;4308966;33;33541;-92
2023/06/05 09:29:40;;;;;;;;;;;;;;;23.65;54.16;99588.38;4306927;33;34969;-92
2023/06/05 09:32:09;;;;;;;;;;;;;;;23.95;52.24;99587.47;4292586;33;36022;-94
2023/06/05 09:34:37;;;;;;;;;;;;;;;24.25;51.47;99576.69;4293157;33;34302;-94
2023/06/05 09:37:06;;;;;;;;;;;;;;;25.15;48.58;99577.91;4289758;33;33074;-92
2023/06/05 09:39:35;;;;;;;;;;;;;;;25.56;49.62;99591.22;4303915;33;33855;-92
2023/06/05 09:42:03;;;;;;;;;;;;;;;25.76;43.85;99582.69;4305888;33;35975;-93
2023/06/05 09:44:33;;;;;;;;;;;;;;;26.10;42.59;99583.88;4304649;33;34908;-92
2023/06/05 09:47:09;;;;;;;;;;;;;;;25.94;41.18;99582.37;4281760;33;34075;-93
2023/06/05 09:49:40;;;;;;;;;;;;;;;26.66;41.71;99575.38;4303287;33;33896;-95
2023/06/05 09:52:11;;;;;;;;;;;;;;;27.35;40.53;99568.50;4304622;33;34961;-94
2023/06/05 09:54:44;;;;;;;;;;;;;;;27.68;39.30;99566.84;4291272;33;35422;-93
2023/06/05 09:57:26;;;;;;;;;;;;;;;28.39;38.67;99563.91;4302009;33;33125;-92
2023/06/05 10:00:44;;;;;;;;;;;;;;;28.14;33.40;99566.75;4322090;27;33966;-95
2023/06/05 10:03:17;;;;;;;;;;;;;;;27.33;35.12;99565.94;4303909;27;34990;-93
2023/06/05 10:05:45;;;;;;;;;;;;;;;28.06;32.75;99557.63;4289236;27;34555;-93
2023/06/05 10:08:19;;;;;;;;;;;;;;;28.16;34.83;99564.78;4262728;33;34116;-93
2023/06/05 10:10:54;;;;;;;;;;;;;;;28.16;33.59;99559.44;4254507;33;34632;-95
2023/06/05 10:13:25;;;;;;;;;;;;;;;28.27;33.21;99555.03;4255708;33;35009;-91
2023/06/05 10:15:56;;;;;;;;;;;;;;;28.40;33.24;99558.44;4261626;33;34696;-91
2023/06/05 10:18:24;;;;;;;;;;;;;;;29.05;31.78;99553.09;4268354;33;34119;-93
2023/06/05 10:20:54;;;;;;;;;;;;;;;29.43;30.94;99549.88;4276284;33;34559;-93
2023/06/05 10:23:23;;;;;;;;;;;;;;;29.26;30.59;99543.28;4272544;33;35248;-93
2023/06/05 10:25:52;;;;;;;;;;;;;;;29.28;30.70;99543.16;4279610;33;34978;-92
2023/06/05 10:28:42;;;;;;;;;;;;;;;29.83;29.22;99540.22;4290609;27;33064;-95
2023/06/05 10:31:44;;;;;;;;;;;;;;;29.13;31.38;99537.22;4286184;33;35184;-93
2023/06/05 10:34:11;;;;;;;;;;;;;;;28.97;30.33;99534.16;4284754;33;35431;-93
2023/06/05 10:37:05;;;;;;;;;;;;;;;29.28;33.65;99537.78;4285216;33;35057;-92
2023/06/05 10:39:35;;;;;;;;;;;;;;;29.59;31.72;99527.91;4297106;27;32141;-96
2023/06/05 10:42:03;;;;;;;;;;;;;;;30.11;28.58;99524.31;4297737;33;34061;-92
2023/06/05 10:44:51;;;;;;;;;;;;;;;30.07;31.50;99529.13;4298913;33;34856;-94
2023/06/05 10:47:34;;;;;;;;;;;;;;;29.57;32.22;99532.56;4315242;27;33657;-95
2023/06/05 10:50:19;;;;;;;;;;;;;;;30.06;29.74;99524.75;4308704;33;34028;-96
2023/06/05 10:52:49;;;;;;;;;;;;;;;29.28;29.25;99524.38;4311529;33;33838;-93
2023/06/05 10:55:23;;;;;;;;;;;;;;;29.40;29.24;99525.12;4312735;33;36209;-93
2023/06/05 10:57:55;;;;;;;;;;;;;;;29.22;30.14;99531.09;4312477;33;34778;-92
2023/06/05 11:00:30;;;;;;;;;;;;;;;28.70;31.24;99514.06;4317097;27;32987;-92
2023/06/05 11:03:00;;;;;;;;;;;;;;;28.96;30.27;99517.22;4286696;33;33728;-93
2023/06/05 11:06:10;;;;;;;;;;;;;;;29.83;30.23;99524.94;4313939;27;35079;-93
2023/06/05 11:08:41;;;;;;;;;;;;;;;29.91;29.61;99521.56;4296097;33;34872;-96
2023/06/05 11:11:14;;;;;;;;;;;;;;;30.25;28.49;99518.59;4287847;33;31507;-92
2023/06/05 11:14:11;;;;;;;;;;;;;;;30.22;27.45;99518.84;4303058;33;35235;-96
2023/06/05 11:16:52;;;;;;;;;;;;;;;29.73;28.28;99517.81;4309551;33;35068;-94
2023/06/05 11:19:39;;;;;;;;;;;;;;;29.75;28.06;99518.53;4317345;33;34517;-96
2023/06/05 11:22:22;;;;;;;;;;;;;;;29.97;30.06;99509.47;4332597;33;33780;-93
2023/06/05 11:25:09;;;;;;;;;;;;;;;29.92;30.41;99511.72;4329622;33;34213;-96
2023/06/05 11:27:40;;;;;;;;;;;;;;;29.39;30.00;99515.41;4329874;33;35164;-92
2023/06/05 11:30:31;;;;;;;;;;;;;;;29.74;29.38;99514.13;4316111;33;34751;-92
2023/06/05 11:33:17;;;;;;;;;;;;;;;29.77;28.89;99503.16;4318371;33;33323;-93
2023/06/05 11:35:47;;;;;;;;;;;;;;;30.19;29.13;99500.31;4328223;33;33975;-96
2023/06/05 11:38:18;;;;;;;;;;;;;;;29.70;29.67;99508.19;4311458;33;34427;-91
2023/06/05 11:40:50;;;;;;;;;;;;;;;28.99;29.92;99508.06;4313422;33;34663;-92
2023/06/05 11:43:20;;;;;;;;;;;;;;;28.64;31.08;99498.47;4317086;33;32406;-93
2023/06/05 11:45:49;;;;;;;;;;;;;;;28.59;35.09;99501.56;4330335;33;34860;-92
2023/06/05 11:48:17;;;;;;;;;;;;;;;28.55;35.25;99494.72;4323283;27;35013;-92
2023/06/05 11:50:54;;;;;;;;;;;;;;;28.98;32.42;99500.97;4293575;33;34316;-93
2023/06/05 11:53:47;;;;;;;;;;;;;;;29.09;33.23;99503.63;4317076;33;32664;-92
2023/06/05 11:56:50;;;;;;;;;;;;;;;28.66;34.35;99492.03;4317926;33;34106;-93
2023/06/05 11:59:28;;;;;;;;;;;;;;;28.71;34.53;99491.63;4317491;33;35957;-93
2023/06/05 12:02:10;;;;;;;;;;;;;;;28.73;38.27;99481.63;4317104;33;34600;-93
2023/06/05 12:04:41;;;;;;;;;;;;;;;29.46;33.33;99479.00;4309935;27;33267;-93
2023/06/05 12:07:12;;;;;;;;;;;;;;;28.36;35.52;99482.84;4297119;27;35371;-92
2023/06/05 12:09:52;;;;;;;;;;;;;;;28.69;36.83;99480.19;4308324;27;35442;-94
2023/06/05 12:12:20;;;;;;;;;;;;;;;28.06;38.77;99471.97;4322265;28;34253;-95
2023/06/05 12:14:49;;;;;;;;;;;;;;;28.27;38.97;99469.34;4320046;33;34159;-96
2023/06/05 12:17:17;;;;;;;;;;;;;;;27.79;36.60;99468.69;4329198;33;33798;-95
2023/06/05 12:19:52;;;;;;;;;;;;;;;28.25;35.76;99465.97;4326102;33;36098;-96
2023/06/05 12:22:36;;;;;;;;;;;;;;;28.10;35.90;99458.22;4309480;33;36081;-93
2023/06/05 12:25:22;;;;;;;;;;;;;;;28.51;35.63;99461.13;4318893;33;33034;-90
2023/06/05 12:27:50;;;;;;;;;;;;;;;28.70;37.19;99463.12;4319011;33;34147;-96
2023/06/05 12:30:18;;;;;;;;;;;;;;;28.73;35.92;99460.19;4319895;33;34873;-94
2023/06/05 12:32:52;;;;;;;;;;;;;;;28.13;36.64;99454.41;4309369;33;34309;-96
2023/06/05 12:35:19;;;;;;;;;;;;;;;28.39;35.43;99462.13;4322532;33;33798;-93
2023/06/05 12:37:48;;;;;;;;;;;;;;;28.33;34.65;99452.78;4321143;33;34198;-96
2023/06/05 12:40:20;;;;;;;;;;;;;;;28.50;35.24;99454.03;4308170;33;34339;-96
2023/06/05 12:43:03;;;;;;;;;;;;;;;28.24;33.26;99448.22;4311518;33;34655;-96
2023/06/05 12:45:33;;;;;;;;;;;;;;;28.15;37.89;99447.97;4309906;33;33384;-96
2023/06/05 12:48:01;;;;;;;;;;;;;;;28.27;35.44;99451.47;4320530;33;34954;-95
2023/06/05 12:50:29;;;;;;;;;;;;;;;28.52;35.35;99446.75;4309390;33;34974;-93
2023/06/05 12:52:57;;;;;;;;;;;;;;;28.09;37.64;99440.44;4309052;33;35416;-96
2023/06/05 12:55:27;;;;;;;;;;;;;;;28.04;36.24;99433.75;4310259;33;33738;-96
2023/06/05 12:57:55;;;;;;;;;;;;;;;28.60;34.59;99438.09;4305163;33;33946;-96
2023/06/05 13:00:24;;;;;;;;;;;;;;;27.90;36.82;99434.84;4303565;33;34165;-96
2023/06/05 13:02:52;;;;;;;;;;;;;;;28.28;35.61;99430.91;4327840;33;35077;-96
2023/06/05 13:05:19;;;;;;;;;;;;;;;27.93;36.06;99423.94;4313836;33;33512;-96
2023/06/05 13:07:49;;;;;;;;;;;;;;;28.36;33.26;99415.03;4327665;33;34224;-96